Main page
METAR-TAF:

METAR-TAF

Airports :

Isle of Man Airport

Isle of Man,

latitude: 54-05N, longitude: 004-38W, elevation: 17 m

Current weather observation

The report was made 44 minutes ago, at 11:50 UTC
Wind 21 kt from the East/Southeast
Temperature 12°C
Humidity 67%
Pressure 1005 hPa
Visibility 10 km or more
no clouds below 1500 m and no cumulonimbus

METAR: EGNS 051150Z 12021KT CAVOK 12/06 Q1005 NOSIG

Time: 13:34 (12:34 UTC)

Forecast

The report was made 1 hour and 34 minutes ago, at 11:00 UTC
Forecast valid from 05 at 12 UTC to 05 at 21 UTC
Wind 17 kt from the East/Southeast
Visibility 10 km or more
Scattered clouds at a height of 4500 ft
Probability 30% :
Temporary
from 04 at 20 UTC to 04 at 21 UTC
Visibility: 8000 m
Scattered clouds at a height of 1000 ft
Broken clouds at a height of 2000 ft
light rain

TAF: EGNS 051100Z 0512/0521 12017KT 9999 SCT045 PROB30 TEMPO 0420/0421 8000 -RA SCT010 BKN020

Weather observations and forecasts of more than 4000 airports (METAR and TAF reports).

The available stations are represented by yellow and red dots on the map.

Hover mouse over dot to see the name of the station.

Then click to see weather observations and forecasts.

To change the map : click on the green buttons with a black cross to zoom in, on the green button with a dash to zoom out, or on the green arrows for adjacent maps.


METAR-TAF: